Other Surface Observations
Issued by NWS

Home | Current Version | Previous Version | Text Only | Print | Product List | Glossary On
Versions: 1 2 3 4 5 6 7 8 9 10 11 12 13 14 15 16 17 18 19 20 21 22 23 24 25 26 27 28 29 30 31 32 33 34 35 36 37 38 39 40 41 42 43 44 45 46 47 48 49 50
000
SXUS51 KWBC 221649
OSONT
:SHEF ENCODED 6-MINUTE NOS MET DATA
:NATIONAL WATER LEVEL OBSERVATION NETWORK (NWLON)
:TA(AIR TEMP DEG F)  SLP(SEA LEVEL PRESSURE INCHES)
:UD(WIND DIRECTION WHOLE DEGREES) US (WIND SPEED MPH)
:TW(WATER TEMP DEG F) UG(WIND GUSTS MPH) WC(CONDUCTIVITY uMHOS/CM)
:-9999 (MISSING VALUES)
:PROVIDED BY DOC/NOAA/NOS/CO-OPS, (301) 713-2540
:corms@noaa.gov
.E FRCB6 20180722 Z DH1636/TAIRP/DIN06/   80/   81
.E FRCB6 20180722 Z DH1636/PLIRP/DIN06/30.21/30.21
.E FRCB6 20180722 Z DH1636/TWIRP/DIN06/   83/   83
.E FRCB6 20180722 Z DH1624/TAIRG/DIN06/   83/   83
.E FRCB6 20180722 Z DH1624/PLIRG/DIN06/30.21/30.21
.E FRCB6 20180722 Z DH1624/TWIRG/DIN06/   83/   83
.E BEPB6 20180722 Z DH1624/TAIRG/DIN06/   83/   83
.E BEPB6 20180722 Z DH1624/PLIRG/DIN06/30.20/30.20
.E BEPB6 20180722 Z DH1624/USIRG/DIN06/    4/    4
.E BEPB6 20180722 Z DH1624/UDIRG/DIN06/  155/  170
.E BEPB6 20180722 Z DH1624/UGIRG/DIN06/   13/   12
.E BEPB6 20180722 Z DH1624/TWIRG/DIN06/   82/   82
.E PSBM1 20180722 Z DH1636/TAIRP/DIN06/   59/   59
.E PSBM1 20180722 Z DH1636/PLIRP/DIN06/30.28/30.28
.E PSBM1 20180722 Z DH1636/USIRP/DIN06/    7/    8
.E PSBM1 20180722 Z DH1636/UDIRP/DIN06/  335/  341
.E PSBM1 20180722 Z DH1636/UGIRP/DIN06/    8/    9
.E PSBM1 20180722 Z DH1636/TWIRP/DIN06/   53/   53
.E PSBM1 20180722 Z DH1624/TAIRG/DIN06/   59/   59
.E PSBM1 20180722 Z DH1624/PLIRG/DIN06/30.28/30.28
.E PSBM1 20180722 Z DH1624/USIRG/DIN06/    6/    8
.E PSBM1 20180722 Z DH1624/UDIRG/DIN06/  339/  335
.E PSBM1 20180722 Z DH1624/UGIRG/DIN06/    7/    9
.E PSBM1 20180722 Z DH1624/TWIRG/DIN06/   53/   53
.A CFWM1 20180722 Z DH1630/TAIRG    65/UGIRG     8/PLIRG 30.23/UDIRG   139/USIRG     2/TWIRG    55/WCIRG -9999
.A ATGM1 20180722 Z DH1630/TAIRG    62/UGIRG     9/PLIRG 30.24/UDIRG   174/USIRG     5/TWIRG    57/WCIRG -9999
.E CASM1 20180722 Z DH1624/TAIRG/DIN06/   62/   61
.E CASM1 20180722 Z DH1624/PLIRG/DIN06/30.18/30.17
.E CASM1 20180722 Z DH1624/TWIRG/DIN06/   62/   62
.A WELM1 20180722 Z DH1630/TAIRG    63/UGIRG    12/PLIRG 30.14/UDIRG     7/USIRG    10/TWIRG    67/WCIRG -9999
.E BHBM3 20180722 Z DH1624/TAIRG/DIN06/   70/   70
.E BHBM3 20180722 Z DH1624/PLIRG/DIN06/30.04/30.04
.E FRVM3 20180722 Z DH1624/TAIRG/DIN06/   74/   74
.E FRVM3 20180722 Z DH1624/PLIRG/DIN06/30.08/30.08
.E FRVM3 20180722 Z DH1624/WCIRG/DIN06/37190/37140
.E FRVM3 20180722 Z DH1624/TWIRG/DIN06/   75/   75
.E BLTM3 20180722 Z DH1636/TAIRP/DIN06/   74/   74
.E BLTM3 20180722 Z DH1636/PLIRP/DIN06/30.07/30.07
.E BLTM3 20180722 Z DH1636/USIRP/DIN06/    8/   10
.E BLTM3 20180722 Z DH1636/UDIRP/DIN06/  158/  161
.E BLTM3 20180722 Z DH1636/UGIRP/DIN06/   11/   17
.E BLTM3 20180722 Z DH1630/TAIRG/DIN06/   74/   74
.E BLTM3 20180722 Z DH1630/PLIRG/DIN06/30.07/30.07
.E BLTM3 20180722 Z DH1630/USIRG/DIN06/   10/    8
.E BLTM3 20180722 Z DH1630/UDIRG/DIN06/  144/  158
.E BLTM3 20180722 Z DH1630/UGIRG/DIN06/   15/   11
.A FRXM3 20180722 Z DH1642/TAIRP    74/UGIRP -9999/PLIRP -9999/UDIRP -9999/USIRP -9999/TWIRP -9999/WCIRG -9999
.E FRXM3 20180722 Z DH1630/TAIRG/DIN06/   74/   74
.E BZBM3 20180722 Z DH1630/TAIRP/DIN06/   72/   72/   72
.E BZBM3 20180722 Z DH1630/PLIRP/DIN06/30.09/30.09/30.10
.E BZBM3 20180722 Z DH1630/TWIRP/DIN06/   72/   71/   71
.E BZBM3 20180722 Z DH1624/TAIRG/DIN06/   73/   73
.E BZBM3 20180722 Z DH1624/PLIRG/DIN06/30.09/30.09
.E BZBM3 20180722 Z DH1624/TWIRG/DIN06/   72/   72
.E NTKM3 20180722 Z DH1624/TAIRG/DIN06/   72/   72
.E NTKM3 20180722 Z DH1624/PLIRG/DIN06/30.09/30.09
.E NTKM3 20180722 Z DH1624/USIRG/DIN06/   10/    9
.E NTKM3 20180722 Z DH1624/UDIRG/DIN06/  144/  144
.E NTKM3 20180722 Z DH1624/UGIRG/DIN06/   17/   16
.E NTKM3 20180722 Z DH1624/TWIRG/DIN06/   73/   73
.A PRUR1 20180722 Z DH1630/TAIRG    73/UGIRG -9999/PLIRG -9999/UDIRG -9999/USIRG -9999/TWIRG -9999/WCIRG -9999
.E NWPR1 20180722 Z DH1624/TAIRG/DIN06/   72/   71
.E NWPR1 20180722 Z DH1624/PLIRG/DIN06/30.06/30.06
.E NWPR1 20180722 Z DH1624/USIRG/DIN06/   11/   11
.E NWPR1 20180722 Z DH1624/UDIRG/DIN06/  135/  125
.E NWPR1 20180722 Z DH1624/UGIRG/DIN06/   15/   13
.E NWPR1 20180722 Z DH1624/WCIRG/DIN06/43270/43230
.E NWPR1 20180722 Z DH1624/TWIRG/DIN06/   68/   68
.E CPTR1 20180722 Z DH1630/TAIRP/DIN06/   73/   73
.E CPTR1 20180722 Z DH1630/PLIRP/DIN06/30.06/30.06
.E CPTR1 20180722 Z DH1630/USIRP/DIN06/   14/   17
.E CPTR1 20180722 Z DH1630/UDIRP/DIN06/  151/  149
.E CPTR1 20180722 Z DH1630/UGIRP/DIN06/   16/   19
.E CPTR1 20180722 Z DH1630/TWIRP/DIN06/   76/   76
.A CPTR1 20180722 Z DH1624/TAIRG    73/UGIRG    15/PLIRG 30.07/UDIRG   154/USIRG    14/TWIRG    76/WCIRG -9999
.E PTCR1 20180722 Z DH1624/TAIRG/DIN06/   73/   73
.E PTCR1 20180722 Z DH1624/PLIRG/DIN06/30.07/30.06
.E PTCR1 20180722 Z DH1624/USIRG/DIN06/    3/    4
.E PTCR1 20180722 Z DH1624/UDIRG/DIN06/  208/  192
.E PTCR1 20180722 Z DH1624/UGIRG/DIN06/    7/   10
.E PVDR1 20180722 Z DH1636/TAIRP/DIN06/   73/   74
.E PVDR1 20180722 Z DH1636/PLIRP/DIN06/30.07/30.07
.E PVDR1 20180722 Z DH1636/USIRP/DIN06/   18/   15
.E PVDR1 20180722 Z DH1636/UDIRP/DIN06/  156/  151
.E PVDR1 20180722 Z DH1636/UGIRP/DIN06/   19/   19
.E PVDR1 20180722 Z DH1624/TAIRG/DIN06/   73/   73
.E PVDR1 20180722 Z DH1624/PLIRG/DIN06/30.07/30.07
.E PVDR1 20180722 Z DH1624/USIRG/DIN06/   13/   15
.E PVDR1 20180722 Z DH1624/UDIRG/DIN06/  158/  153
.E PVDR1 20180722 Z DH1624/UGIRG/DIN06/   14/   18
.E FOXR1 20180722 Z DH1624/TAIRG/DIN06/   73/   73
.E FOXR1 20180722 Z DH1624/PLIRG/DIN06/30.06/30.06
.E FOXR1 20180722 Z DH1624/USIRG/DIN06/   13/   16
.E FOXR1 20180722 Z DH1624/UDIRG/DIN06/  179/  183
.E FOXR1 20180722 Z DH1624/UGIRG/DIN06/   16/   19
.E FOXR1 20180722 Z DH1624/TWIRG/DIN06/   73/   73
.E QPTR1 20180722 Z DH1630/TAIRP/DIN06/   73/   73
.E QPTR1 20180722 Z DH1630/PLIRP/DIN06/30.07/30.07
.E QPTR1 20180722 Z DH1630/USIRP/DIN06/   15/   14
.E QPTR1 20180722 Z DH1630/UDIRP/DIN06/  163/  172
.E QPTR1 20180722 Z DH1630/UGIRP/DIN06/   18/   17
.E QPTR1 20180722 Z DH1630/TWIRP/DIN06/   74/   74
.A QPTR1 20180722 Z DH1624/TAIRG    72/UGIRG    20/PLIRG 30.07/UDIRG   175/USIRG    17/TWIRG    74/WCIRG 35230
.E NLNC3 20180722 Z DH1624/TAIRG/DIN06/   76/   75
.E NLNC3 20180722 Z DH1624/PLIRG/DIN06/30.03/30.04
.E NLNC3 20180722 Z DH1624/USIRG/DIN06/   11/   12
.E NLNC3 20180722 Z DH1624/UDIRG/DIN06/  187/  185
.E NLNC3 20180722 Z DH1624/UGIRG/DIN06/   18/   17
.E NLNC3 20180722 Z DH1624/TWIRG/DIN06/   73/   73
.E NWHC3 20180722 Z DH1636/TAIRP/DIN06/   77/   77
.E NWHC3 20180722 Z DH1636/PLIRP/DIN06/30.01/30.01
.E NWHC3 20180722 Z DH1636/USIRP/DIN06/   16/   14
.E NWHC3 20180722 Z DH1636/UDIRP/DIN06/  157/  161
.E NWHC3 20180722 Z DH1636/UGIRP/DIN06/   21/   19
.E NWHC3 20180722 Z DH1636/TWIRP/DIN06/   76/   76
.A NWHC3 20180722 Z DH1630/TAIRG    77/UGIRG    20/PLIRG 30.01/UDIRG   177/USIRG    15/TWIRG    76/WCIRG -9999
.A BRHC3 20180722 Z DH1624/TAIRG    77/UGIRG    13/PLIRG 29.98/UDIRG   160/USIRG    10/TWIRG    73/WCIRG -9999
.E MTKN6 20180722 Z DH1636/TAIRP/DIN06/   73/   73
.E MTKN6 20180722 Z DH1636/PLIRP/DIN06/30.04/30.04
.E MTKN6 20180722 Z DH1636/TWIRP/DIN06/   67/   67
.E MTKN6 20180722 Z DH1624/TAIRG/DIN06/   73/   73
.E MTKN6 20180722 Z DH1624/PLIRG/DIN06/30.04/30.04
.E MTKN6 20180722 Z DH1624/TWIRG/DIN06/   67/   67
.E KPTN6 20180722 Z DH1630/TWIRP/DIN06/   71/   71
.E KPTN6 20180722 Z DH1624/PLIRG/DIN06/29.99/29.99
.E KPTN6 20180722 Z DH1624/TWIRG/DIN06/   70/   70
.E BATN6 20180722 Z DH1636/TAIRP/DIN06/   77/   77
.E BATN6 20180722 Z DH1636/PLIRP/DIN06/29.98/29.98
.E BATN6 20180722 Z DH1636/TWIRP/DIN06/   74/   74
.A BATN6 20180722 Z DH1630/TAIRG    76/UGIRG -9999/PLIRG 29.98/UDIRG -9999/USIRG -9999/TWIRG    74/WCIRG -9999
.E TKPN6 20180722 Z DH1624/TAIRG/DIN06/   75/   76
.E TKPN6 20180722 Z DH1624/PLIRG/DIN06/29.94/29.94
.E TKPN6 20180722 Z DH1624/USIRG/DIN06/   11/   15
.E TKPN6 20180722 Z DH1624/UDIRG/DIN06/  181/  184
.E TKPN6 20180722 Z DH1624/UGIRG/DIN06/   13/   18
.E TKPN6 20180722 Z DH1624/TWIRG/DIN06/   80/   80
.E BGNN6 20180722 Z DH1636/TAIRP/DIN06/   80/   79
.E BGNN6 20180722 Z DH1636/PLIRP/DIN06/29.95/29.95
.E BGNN6 20180722 Z DH1636/TWIRP/DIN06/   76/   76
.A BGNN6 20180722 Z DH1624/TAIRG    80/UGIRG -9999/PLIRG 29.95/UDIRG -9999/USIRG -9999/TWIRG    76/WCIRG -9999
.E MHRN6 20180722 Z DH1636/USIRP/DIN06/   18/   15
.E MHRN6 20180722 Z DH1636/UDIRP/DIN06/  122/  125
.E MHRN6 20180722 Z DH1636/UGIRP/DIN06/   22/   23
.E MHRN6 20180722 Z DH1630/USIRG/DIN06/   15/   18
.E MHRN6 20180722 Z DH1630/UDIRG/DIN06/  126/  122
.E MHRN6 20180722 Z DH1630/UGIRG/DIN06/   19/   22
.A ROBN4 20180722 Z DH1630/TAIRG    75/UGIRG    27/PLIRG 29.97/UDIRG   149/USIRG    24/TWIRG -9999/WCIRG -9999
.E SDHN4 20180722 Z DH1636/TAIRP/DIN06/   75/   76
.E SDHN4 20180722 Z DH1636/USIRP/DIN06/   15/   14
.E SDHN4 20180722 Z DH1636/UDIRP/DIN06/  143/  151
.E SDHN4 20180722 Z DH1636/UGIRP/DIN06/   20/   21
.E SDHN4 20180722 Z DH1636/TWIRP/DIN06/   74/   74
.E ACYN4 20180722 Z DH1624/TAIRG/DIN06/   75/   75
.E ACYN4 20180722 Z DH1624/PLIRG/DIN06/29.93/29.93
.E ACYN4 20180722 Z DH1624/TWIRG/DIN06/   73/   73
.A CMAN4 20180722 Z DH1630/TAIRG    77/UGIRG    20/PLIRG 29.88/UDIRG   124/USIRG    16/TWIRG    74/WCIRG 43820
.E BDRN4 20180722 Z DH1636/TAIRP/DIN06/   80/   81
.E BDRN4 20180722 Z DH1636/PLIRP/DIN06/29.90/29.89
.E BDRN4 20180722 Z DH1636/TWIRP/DIN06/   80/   80
.E BDRN4 20180722 Z DH1624/TAIRG/DIN06/   80/   80
.E BDRN4 20180722 Z DH1624/PLIRG/DIN06/29.89/29.89
.E BDRN4 20180722 Z DH1624/USIRG/DIN06/    6/    9
.E BDRN4 20180722 Z DH1624/UDIRG/DIN06/  141/  129
.E BDRN4 20180722 Z DH1624/UGIRG/DIN06/   12/   13
.E BDRN4 20180722 Z DH1624/TWIRG/DIN06/   80/   80
.E MRCP1 20180722 Z DH1630/TAIRP/DIN06/   79/   79
.E MRCP1 20180722 Z DH1630/PLIRP/DIN06/29.88/29.88
.E MRCP1 20180722 Z DH1630/TWIRP/DIN06/   80/   80
.E MRCP1 20180722 Z DH1624/TAIRG/DIN06/   78/   79
.E MRCP1 20180722 Z DH1624/PLIRG/DIN06/29.88/29.89
.E MRCP1 20180722 Z DH1624/TWIRG/DIN06/   80/   80
.E PHBP1 20180722 Z DH1624/TAIRG/DIN06/   80/   80
.E PHBP1 20180722 Z DH1624/PLIRG/DIN06/29.88/29.88
.E PHBP1 20180722 Z DH1624/TWIRG/DIN06/   80/   80
.E BDSP1 20180722 Z DH1630/TAIRP/DIN06/   80/   80
.E BDSP1 20180722 Z DH1630/PLIRP/DIN06/29.90/29.90
.E BDSP1 20180722 Z DH1630/TWIRP/DIN06/   81/   81
.E BDSP1 20180722 Z DH1624/TAIRG/DIN06/   79/   80
.E BDSP1 20180722 Z DH1624/PLIRG/DIN06/29.90/29.90
.E BDSP1 20180722 Z DH1624/TWIRG/DIN06/   81/   81
.E NBLP1 20180722 Z DH1636/TAIRP/DIN06/   81/   81
.E NBLP1 20180722 Z DH1636/PLIRP/DIN06/29.92/29.92
.E NBLP1 20180722 Z DH1636/USIRP/DIN06/    9/    9
.E NBLP1 20180722 Z DH1636/UDIRP/DIN06/  167/  164
.E NBLP1 20180722 Z DH1636/UGIRP/DIN06/   13/   11
.E NBLP1 20180722 Z DH1636/TWIRP/DIN06/   80/   80
.E NBLP1 20180722 Z DH1630/TAIRG/DIN06/   80/   81
.E NBLP1 20180722 Z DH1630/PLIRG/DIN06/29.92/29.92
.E NBLP1 20180722 Z DH1630/USIRG/DIN06/    7/    9
.E NBLP1 20180722 Z DH1630/UDIRG/DIN06/  152/  167
.E NBLP1 20180722 Z DH1630/UGIRG/DIN06/   11/   13
.E NBLP1 20180722 Z DH1630/TWIRG/DIN06/   80/   80
.E DELD1 20180722 Z DH1630/TAIRP/DIN06/-9999/   78/   79
.E DELD1 20180722 Z DH1630/PLIRP/DIN06/-9999/29.89/29.88
.E DELD1 20180722 Z DH1630/USIRP/DIN06/-9999/    6/    5
.E DELD1 20180722 Z DH1630/UDIRP/DIN06/-9999/  162/  158
.E DELD1 20180722 Z DH1630/UGIRP/DIN06/-9999/   11/    8
.E DELD1 20180722 Z DH1630/TWIRP/DIN06/   75/   76/   76
.E DELD1 20180722 Z DH1630/TAIRG/DIN06/   77/   78
.E DELD1 20180722 Z DH1630/PLIRG/DIN06/29.89/29.89
.E DELD1 20180722 Z DH1630/USIRG/DIN06/    6/    6
.E DELD1 20180722 Z DH1630/UDIRG/DIN06/  158/  162
.E DELD1 20180722 Z DH1630/UGIRG/DIN06/    9/   11
.E DELD1 20180722 Z DH1630/TWIRG/DIN06/   75/   76
.E RDYD1 20180722 Z DH1630/TAIRG/DIN06/   77/   78
.E RDYD1 20180722 Z DH1630/PLIRG/DIN06/29.87/29.86
.E RDYD1 20180722 Z DH1630/TWIRG/DIN06/   80/   80
.A BRND1 20180722 Z DH1612/TAIRP    75/UGIRP    22/PLIRP 29.90/UDIRP   134/USIRP    19/TWIRP -9999/WCIRP -9999
.E BRND1 20180722 Z DH1624/TAIRG/DIN06/   75/   75
.E BRND1 20180722 Z DH1624/PLIRG/DIN06/29.90/29.90
.E BRND1 20180722 Z DH1624/USIRG/DIN06/   19/   17
.E BRND1 20180722 Z DH1624/UDIRG/DIN06/  136/  130
.E BRND1 20180722 Z DH1624/UGIRG/DIN06/   21/   20
.E LWSD1 20180722 Z DH1624/TAIRG/DIN06/   77/   77
.E LWSD1 20180722 Z DH1624/PLIRG/DIN06/29.88/29.88
.E LWSD1 20180722 Z DH1624/USIRG/DIN06/   10/   12
.E LWSD1 20180722 Z DH1624/UDIRG/DIN06/  154/  147
.E LWSD1 20180722 Z DH1624/UGIRG/DIN06/   16/   19
.E LWSD1 20180722 Z DH1624/WCIRG/DIN06/41400/41390
.E LWSD1 20180722 Z DH1624/TWIRG/DIN06/   72/   72
.E OCIM2 20180722 Z DH1624/TAIRG/DIN06/   80/   79
.E OCIM2 20180722 Z DH1624/PLIRG/DIN06/29.90/29.90
.E OCIM2 20180722 Z DH1624/USIRG/DIN06/   10/   11
.E OCIM2 20180722 Z DH1624/UDIRG/DIN06/  156/  152
.E OCIM2 20180722 Z DH1624/UGIRG/DIN06/   13/   15
.E OCIM2 20180722 Z DH1624/TWIRG/DIN06/   76/   76
.E BISM2 20180722 Z DH1630/TAIRP/DIN06/   80/   81
.E BISM2 20180722 Z DH1630/PLIRP/DIN06/29.83/29.83
.E BISM2 20180722 Z DH1630/USIRP/DIN06/   18/   16
.E BISM2 20180722 Z DH1630/UDIRP/DIN06/  130/  130
.E BISM2 20180722 Z DH1630/UGIRP/DIN06/   21/   21
.E BISM2 20180722 Z DH1630/TWIRP/DIN06/   82/   82
.A BISM2 20180722 Z DH1630/TAIRG    80/UGIRG    19/PLIRG 29.83/UDIRG   130/USIRG    16/TWIRG    82/WCIRG -9999
.E CAMM2 20180722 Z DH1636/TAIRP/DIN06/   79/   79
.E CAMM2 20180722 Z DH1636/PLIRP/DIN06/29.87/29.87
.E CAMM2 20180722 Z DH1636/TWIRP/DIN06/   80/   80
.A CAMM2 20180722 Z DH1624/TAIRG    78/UGIRG -9999/PLIRG 29.87/UDIRG -9999/USIRG -9999/TWIRG    80/WCIRG -9999
.E TCBM2 20180722 Z DH1636/TAIRP/DIN06/   73/   73
.E TCBM2 20180722 Z DH1636/PLIRP/DIN06/29.87/29.87
.E TCBM2 20180722 Z DH1636/USIRP/DIN06/    6/    5
.E TCBM2 20180722 Z DH1636/UDIRP/DIN06/  101/  110
.E TCBM2 20180722 Z DH1636/UGIRP/DIN06/    9/    8
.E TCBM2 20180722 Z DH1636/TWIRP/DIN06/   77/   77
.A TCBM2 20180722 Z DH1630/TAIRG    73/UGIRG     6/PLIRG 29.87/UDIRG   108/USIRG     5/TWIRG    77/WCIRG -9999
.E CHCM2 20180722 Z DH1636/TAIRP/DIN06/   72/   73
.E CHCM2 20180722 Z DH1636/PLIRP/DIN06/29.88/29.88
.E CHCM2 20180722 Z DH1636/USIRP/DIN06/    3/    2
.E CHCM2 20180722 Z DH1636/UDIRP/DIN06/  209/  262
.E CHCM2 20180722 Z DH1636/UGIRP/DIN06/    5/    3
.E CHCM2 20180722 Z DH1636/TWIRP/DIN06/   80/   80
.A CHCM2 20180722 Z DH1624/TAIRG    72/UGIRG     5/PLIRG 29.89/UDIRG    82/USIRG     3/TWIRG    80/WCIRG  7310
.E BLTM2 20180722 Z DH1624/TAIRG/DIN06/   74/   74
.E BLTM2 20180722 Z DH1624/PLIRG/DIN06/29.85/29.84
.E BLTM2 20180722 Z DH1624/USIRG/DIN06/    5/    8
.E BLTM2 20180722 Z DH1624/UDIRG/DIN06/  153/  126
.E BLTM2 20180722 Z DH1624/UGIRG/DIN06/   12/   13
.E BLTM2 20180722 Z DH1624/WCIRG/DIN06/ 3100/ 3030
.E BLTM2 20180722 Z DH1624/TWIRG/DIN06/   79/   79
.E FSKM2 20180722 Z DH1636/TAIRP/DIN06/   72/   72
.E FSKM2 20180722 Z DH1636/PLIRP/DIN06/29.85/29.85
.E FSKM2 20180722 Z DH1636/USIRP/DIN06/   11/   12
.E FSKM2 20180722 Z DH1636/UDIRP/DIN06/   99/   87
.E FSKM2 20180722 Z DH1636/UGIRP/DIN06/   13/   13
.A FSKM2 20180722 Z DH1630/TAIRG    73/UGIRG    12/PLIRG 29.84/UDIRG    88/USIRG    11/TWIRG -9999/WCIRG -9999
.E FSNM2 20180722 Z DH1630/TAIRP/DIN06/   72/   72
.E FSNM2 20180722 Z DH1630/PLIRP/DIN06/29.85/29.85
.E FSNM2 20180722 Z DH1630/USIRP/DIN06/   10/   11
.E FSNM2 20180722 Z DH1630/UDIRP/DIN06/   97/   89
.E FSNM2 20180722 Z DH1630/UGIRP/DIN06/   13/   12
.E CPVM2 20180722 Z DH1630/TAIRP/DIN06/   73/   74
.E CPVM2 20180722 Z DH1624/TAIRG/DIN06/   73/   73
.E APAM2 20180722 Z DH1624/TAIRG/DIN06/   73/   73
.E APAM2 20180722 Z DH1624/PLIRG/DIN06/29.84/29.84
.A COVM2 20180722 Z DH1630/TAIRG    78/UGIRG    17/PLIRG 29.85/UDIRG   163/USIRG    13/TWIRG -9999/WCIRG -9999
.E SLIM2 20180722 Z DH1630/TAIRP/DIN06/   79/   79
.E SLIM2 20180722 Z DH1630/PLIRP/DIN06/29.82/29.82
.E SLIM2 20180722 Z DH1630/USIRP/DIN06/   16/   17
.E SLIM2 20180722 Z DH1630/UDIRP/DIN06/  117/  122
.E SLIM2 20180722 Z DH1630/UGIRP/DIN06/   20/   19
.E SLIM2 20180722 Z DH1630/TWIRP/DIN06/   80/   80
.E SLIM2 20180722 Z DH1624/TAIRG/DIN06/   79/   79
.E SLIM2 20180722 Z DH1624/PLIRG/DIN06/29.82/29.82
.E SLIM2 20180722 Z DH1624/USIRG/DIN06/   16/   13
.E SLIM2 20180722 Z DH1624/UDIRG/DIN06/  129/  123
.E SLIM2 20180722 Z DH1624/UGIRG/DIN06/   18/   18
.E SLIM2 20180722 Z DH1624/TWIRG/DIN06/   80/   80
.E PPTM2 20180722 Z DH1624/USIRP/DIN06/   18/   18
.E PPTM2 20180722 Z DH1624/UDIRP/DIN06/  142/  146
.E PPTM2 20180722 Z DH1624/UGIRP/DIN06/   19/   21
.E WASD2 20180722 Z DH1630/TAIRP/DIN06/   77/   77
.E WASD2 20180722 Z DH1630/PLIRP/DIN06/29.84/29.84
.E WASD2 20180722 Z DH1630/USIRP/DIN06/    2/    1
.E WASD2 20180722 Z DH1630/UDIRP/DIN06/  128/  104
.E WASD2 20180722 Z DH1630/UGIRP/DIN06/    4/    7
.E WASD2 20180722 Z DH1630/TWIRP/DIN06/   78/   78
.E WASD2 20180722 Z DH1624/TAIRG/DIN06/   76/   77
.E WASD2 20180722 Z DH1624/PLIRG/DIN06/29.84/29.84
.E WASD2 20180722 Z DH1624/USIRG/DIN06/    2/    2
.E WASD2 20180722 Z DH1624/UDIRG/DIN06/   55/  128
.E WASD2 20180722 Z DH1624/UGIRG/DIN06/    4/    7
.E WASD2 20180722 Z DH1624/TWIRG/DIN06/   78/   78
.A WAHV2 20180722 Z DH1630/TAIRG    80/UGIRG    19/PLIRG 29.84/UDIRG   142/USIRG    13/TWIRG    77/WCIRG -9999
.E KPTV2 20180722 Z DH1624/USIRG/DIN06/   22/   19
.E KPTV2 20180722 Z DH1624/UDIRG/DIN06/  146/  127
.E KPTV2 20180722 Z DH1624/UGIRG/DIN06/   25/   24
.E KPTV2 20180722 Z DH1624/TWIRG/DIN06/   79/   79
.A RPLV2 20180722 Z DH1630/TAIRG -9999/UGIRG    27/PLIRG 29.84/UDIRG   134/USIRG    24/TWIRG -9999/WCIRG -9999
.E NCDV2 20180722 Z DH1630/TAIRP/DIN06/   76/   76
.E NCDV2 20180722 Z DH1630/PLIRP/DIN06/29.80/29.79
.E NCDV2 20180722 Z DH1630/USIRP/DIN06/    3/    2
.E NCDV2 20180722 Z DH1630/UDIRP/DIN06/   86/   74
.E NCDV2 20180722 Z DH1630/UGIRP/DIN06/    8/    6
.E NCDV2 20180722 Z DH1630/TWIRP/DIN06/   77/   77
.E NCDV2 20180722 Z DH1624/TAIRG/DIN06/   74/   75
.E NCDV2 20180722 Z DH1624/PLIRG/DIN06/29.80/29.80
.E NCDV2 20180722 Z DH1624/USIRG/DIN06/    9/    8
.E NCDV2 20180722 Z DH1624/UDIRG/DIN06/   94/   91
.E NCDV2 20180722 Z DH1624/UGIRG/DIN06/   12/   11
.E NCDV2 20180722 Z DH1624/TWIRG/DIN06/   77/   77
.E LWTV2 20180722 Z DH1624/TAIRG/DIN06/   81/   81
.E LWTV2 20180722 Z DH1624/PLIRG/DIN06/29.80/29.80
.E LWTV2 20180722 Z DH1624/USIRG/DIN06/   14/   15
.E LWTV2 20180722 Z DH1624/UDIRG/DIN06/  152/  159
.E LWTV2 20180722 Z DH1624/UGIRG/DIN06/   17/   21
.E LWTV2 20180722 Z DH1624/WCIRG/DIN06/13100/12940
.E LWTV2 20180722 Z DH1624/TWIRG/DIN06/   78/   78
.A YKRV2 20180722 Z DH1630/TAIRG    80/UGIRG     9/PLIRG 29.83/UDIRG   174/USIRG     7/TWIRG -9999/WCIRG -9999
.E YKTV2 20180722 Z DH1624/TAIRG/DIN06/   81/   81
.E YKTV2 20180722 Z DH1624/PLIRG/DIN06/29.80/29.80
.E YKTV2 20180722 Z DH1624/USIRG/DIN06/    6/    7
.E YKTV2 20180722 Z DH1624/UDIRG/DIN06/  178/  170
.E YKTV2 20180722 Z DH1624/UGIRG/DIN06/   11/   10
.E YKTV2 20180722 Z DH1624/WCIRG/DIN06/20690/20710
.E YKTV2 20180722 Z DH1624/TWIRG/DIN06/   80/   80
.E DOMV2 20180722 Z DH1624/TAIRG/DIN06/   80/   83
.E DOMV2 20180722 Z DH1624/PLIRG/DIN06/29.82/29.82
.E DOMV2 20180722 Z DH1624/USIRG/DIN06/    4/    4
.E DOMV2 20180722 Z DH1624/UDIRG/DIN06/  173/  171
.E DOMV2 20180722 Z DH1624/UGIRG/DIN06/    5/    6
.E CRYV2 20180722 Z DH1630/TAIRG/DIN06/   83/   83
.E CRYV2 20180722 Z DH1630/PLIRG/DIN06/29.80/29.81
.E CRYV2 20180722 Z DH1630/USIRG/DIN06/    9/    9
.E CRYV2 20180722 Z DH1630/UDIRG/DIN06/  222/  213
.E CRYV2 20180722 Z DH1630/UGIRG/DIN06/   14/   13
.E SWPV2 20180722 Z DH1636/TWIRP/DIN06/   80/   80
.E SWPV2 20180722 Z DH1624/PLIRG/DIN06/29.80/29.80
.E SWPV2 20180722 Z DH1624/WCIRG/DIN06/22920/22880
.E SWPV2 20180722 Z DH1624/TWIRG/DIN06/   80/   80
.E WDSV2 20180722 Z DH1624/TAIRG/DIN06/   82/   83
.E WDSV2 20180722 Z DH1624/PLIRG/DIN06/29.79/29.79
.E WDSV2 20180722 Z DH1624/USIRG/DIN06/   11/   18
.E WDSV2 20180722 Z DH1624/UDIRG/DIN06/  157/  166
.E WDSV2 20180722 Z DH1624/UGIRG/DIN06/   14/   20
.A CHBV2 20180722 Z DH1624/TAIRG    79/UGIRG    25/PLIRG 29.79/UDIRG   146/USIRG    21/TWIRG -9999/WCIRG -9999
.E CHYV2 20180722 Z DH1624/TAIRG/DIN06/   79/   80
.E CHYV2 20180722 Z DH1624/PLIRG/DIN06/29.77/29.78
.E CHYV2 20180722 Z DH1624/USIRG/DIN06/   15/   15
.E CHYV2 20180722 Z DH1624/UDIRG/DIN06/  135/  139
.E CHYV2 20180722 Z DH1624/UGIRG/DIN06/   21/   19
.E MNPV2 20180722 Z DH1636/TAIRP/DIN06/   85/   85
.E MNPV2 20180722 Z DH1636/PLIRP/DIN06/29.80/29.80
.E MNPV2 20180722 Z DH1636/USIRP/DIN06/   11/   13
.E MNPV2 20180722 Z DH1636/UDIRP/DIN06/  163/  157
.E MNPV2 20180722 Z DH1636/UGIRP/DIN06/   16/   17
.E MNPV2 20180722 Z DH1636/TWIRP/DIN06/   82/   82
.A MNPV2 20180722 Z DH1624/TAIRG    85/UGIRG    18/PLIRG 29.80/UDIRG   160/USIRG    13/TWIRG    81/WCIRG 25660
.A DUKN7 20180722 Z DH1630/TAIRG    78/UGIRG    23/PLIRG 29.82/UDIRG   133/USIRG    21/TWIRG    73/WCIRG -9999
.A ORIN7 20180722 Z DH1624/TAIRG    83/UGIRG    23/PLIRG 29.85/UDIRG   159/USIRG    18/TWIRG    78/WCIRG -9999
.E HCGN7 20180722 Z DH1636/TAIRP/DIN06/   83/   83
.E HCGN7 20180722 Z DH1636/PLIRP/DIN06/29.84/29.84
.E HCGN7 20180722 Z DH1636/USIRP/DIN06/   17/   17
.E HCGN7 20180722 Z DH1636/UDIRP/DIN06/  155/  155
.E HCGN7 20180722 Z DH1636/UGIRP/DIN06/   22/   22
.E HCGN7 20180722 Z DH1636/TWIRP/DIN06/   80/   80
.E HCGN7 20180722 Z DH1624/TAIRG/DIN06/   83/   84
.E HCGN7 20180722 Z DH1624/PLIRG/DIN06/29.84/29.84
.E HCGN7 20180722 Z DH1624/USIRG/DIN06/   15/   17
.E HCGN7 20180722 Z DH1624/UDIRG/DIN06/  158/  158
.E HCGN7 20180722 Z DH1624/UGIRG/DIN06/   21/   23
.E HCGN7 20180722 Z DH1624/TWIRG/DIN06/   80/   80
.E BFTN7 20180722 Z DH1624/TAIRG/DIN06/   82/   82
.E BFTN7 20180722 Z DH1624/PLIRG/DIN06/29.83/29.83
.E BFTN7 20180722 Z DH1624/USIRG/DIN06/-9999/   19
.E BFTN7 20180722 Z DH1624/UDIRG/DIN06/-9999/  188
.E BFTN7 20180722 Z DH1624/UGIRG/DIN06/-9999/   22
.E BFTN7 20180722 Z DH1624/TWIRG/DIN06/   81/   81
.E WLON7 20180722 Z DH1624/TAIRG/DIN06/   86/   86
.E WLON7 20180722 Z DH1624/PLIRG/DIN06/29.78/29.78
.E WLON7 20180722 Z DH1624/TWIRG/DIN06/   83/   83
.E JMPN7 20180722 Z DH1630/TAIRP/DIN06/   83/   83
.E JMPN7 20180722 Z DH1630/PLIRP/DIN06/29.80/29.80
.E JMPN7 20180722 Z DH1630/USIRP/DIN06/   21/   21
.E JMPN7 20180722 Z DH1630/UDIRP/DIN06/  183/  186
.E JMPN7 20180722 Z DH1630/UGIRP/DIN06/   22/   23
.E JMPN7 20180722 Z DH1630/TWIRP/DIN06/   85/   85
.E JMPN7 20180722 Z DH1624/TAIRG/DIN06/   83/   83
.E JMPN7 20180722 Z DH1624/PLIRG/DIN06/29.80/29.80
.E JMPN7 20180722 Z DH1624/USIRG/DIN06/   20/   21
.E JMPN7 20180722 Z DH1624/UDIRG/DIN06/  185/  183
.E JMPN7 20180722 Z DH1624/UGIRG/DIN06/   23/   22
.E JMPN7 20180722 Z DH1624/TWIRG/DIN06/   85/   85
.E MROS1 20180722 Z DH1624/TAIRG/DIN06/   81/   81
.E MROS1 20180722 Z DH1624/PLIRG/DIN06/29.89/29.89
.E CHTS1 20180722 Z DH1624/TAIRG/DIN06/   86/   86
.E CHTS1 20180722 Z DH1624/PLIRG/DIN06/29.79/29.79
.E CHTS1 20180722 Z DH1624/USIRG/DIN06/    9/   10
.E CHTS1 20180722 Z DH1624/UDIRG/DIN06/  171/  180
.E CHTS1 20180722 Z DH1624/UGIRG/DIN06/   12/   12
.E CHTS1 20180722 Z DH1624/TWIRG/DIN06/   85/   85
.E FPKG1 20180722 Z DH1624/TAIRG/DIN06/   85/   85
.E FPKG1 20180722 Z DH1624/PLIRG/DIN06/29.81/29.81
.E FPKG1 20180722 Z DH1624/USIRG/DIN06/    6/    7
.E FPKG1 20180722 Z DH1624/UDIRG/DIN06/  290/  292
.E FPKG1 20180722 Z DH1624/UGIRG/DIN06/    8/   11
.E FPKG1 20180722 Z DH1624/TWIRG/DIN06/   84/   84
.E FRDF1 20180722 Z DH1630/TAIRP/DIN06/   90/   89
.E FRDF1 20180722 Z DH1630/PLIRP/DIN06/29.84/29.84
.E FRDF1 20180722 Z DH1630/TWIRP/DIN06/   84/   84
.E FRDF1 20180722 Z DH1624/TAIRG/DIN06/   89/   90
.E FRDF1 20180722 Z DH1624/PLIRG/DIN06/29.85/29.84
.E FRDF1 20180722 Z DH1624/TWIRG/DIN06/   83/   83
.E MYPF1 20180722 Z DH1636/TAIRP/DIN06/   82/   81
.E MYPF1 20180722 Z DH1636/PLIRP/DIN06/29.84/29.85
.E MYPF1 20180722 Z DH1636/USIRP/DIN06/    5/    4
.E MYPF1 20180722 Z DH1636/UDIRP/DIN06/  173/  195
.E MYPF1 20180722 Z DH1636/UGIRP/DIN06/    9/    7
.E MYPF1 20180722 Z DH1636/TWIRP/DIN06/   84/   84
.E MYPF1 20180722 Z DH1624/TAIRG/DIN06/   85/   83
.E MYPF1 20180722 Z DH1624/PLIRG/DIN06/29.83/29.83
.E MYPF1 20180722 Z DH1624/USIRG/DIN06/    5/    7
.E MYPF1 20180722 Z DH1624/UDIRG/DIN06/  173/  140
.E MYPF1 20180722 Z DH1624/UGIRG/DIN06/    7/   13
.E MYPF1 20180722 Z DH1624/WCIRG/DIN06/17990/17940
.E MYPF1 20180722 Z DH1624/TWIRG/DIN06/   84/   84
.A DMSF1 20180722 Z DH1630/TAIRG -9999/UGIRG -9999/PLIRG -9999/UDIRG -9999/USIRG -9999/TWIRG    84/WCIRG  7730
.E LTJF1 20180722 Z DH1636/TAIRP/DIN06/   81/   80
.A BLIF1 20180722 Z DH1630/TAIRG    86/UGIRG     5/PLIRG 29.85/UDIRG   264/USIRG     2/TWIRG -9999/WCIRG -9999
.E RCYF1 20180722 Z DH1636/TWIRP/DIN06/   84/   84
.A RCYF1 20180722 Z DH1630/TAIRG -9999/UGIRG -9999/PLIRG -9999/UDIRG -9999/USIRG -9999/TWIRG    84/WCIRG   810
.E TRDF1 20180722 Z DH1624/TAIRG/DIN06/   88/   89
.E TRDF1 20180722 Z DH1624/PLIRG/DIN06/29.93/29.92
.E TRDF1 20180722 Z DH1624/USIRG/DIN06/   15/   12
.E TRDF1 20180722 Z DH1624/UDIRG/DIN06/  234/  234
.E TRDF1 20180722 Z DH1624/UGIRG/DIN06/   21/   18
.E TRDF1 20180722 Z DH1624/TWIRG/DIN06/   83/   83
.E LKWF1 20180722 Z DH1636/TAIRP/DIN06/   89/   89
.E LKWF1 20180722 Z DH1636/PLIRP/DIN06/29.97/29.97
.E LKWF1 20180722 Z DH1636/USIRP/DIN06/    5/    6
.E LKWF1 20180722 Z DH1636/UDIRP/DIN06/  278/  288
.E LKWF1 20180722 Z DH1636/UGIRP/DIN06/   12/   10
.E LKWF1 20180722 Z DH1636/TWIRP/DIN06/   83/   83
.E LKWF1 20180722 Z DH1624/TAIRG/DIN06/   89/   89
.E LKWF1 20180722 Z DH1624/PLIRG/DIN06/29.98/29.98
.E LKWF1 20180722 Z DH1624/USIRG/DIN06/   13/   10
.E LKWF1 20180722 Z DH1624/UDIRG/DIN06/  315/  305
.E LKWF1 20180722 Z DH1624/UGIRG/DIN06/   18/   14
.E LKWF1 20180722 Z DH1624/TWIRG/DIN06/   83/   83
.E PEGF1 20180722 Z DH1624/TAIRG/DIN06/   90/   91
.E PEGF1 20180722 Z DH1624/PLIRG/DIN06/29.95/29.94
.E PEGF1 20180722 Z DH1624/USIRG/DIN06/-9999/    9
.E PEGF1 20180722 Z DH1624/UDIRG/DIN06/-9999/  319
.E PEGF1 20180722 Z DH1624/UGIRG/DIN06/-9999/   14
.E VAKF1 20180722 Z DH1636/TAIRP/DIN06/   91/   90
.E VAKF1 20180722 Z DH1636/PLIRP/DIN06/29.95/29.95
.E VAKF1 20180722 Z DH1636/USIRP/DIN06/    8/    9
.E VAKF1 20180722 Z DH1636/UDIRP/DIN06/  241/  235
.E VAKF1 20180722 Z DH1636/UGIRP/DIN06/   11/   14
.E VAKF1 20180722 Z DH1636/TWIRP/DIN06/   89/   89
.E VAKF1 20180722 Z DH1624/TAIRG/DIN06/   91/   91
.E VAKF1 20180722 Z DH1624/PLIRG/DIN06/29.95/29.94
.E VAKF1 20180722 Z DH1624/USIRG/DIN06/    4/    6
.E VAKF1 20180722 Z DH1624/UDIRG/DIN06/  269/  247
.E VAKF1 20180722 Z DH1624/UGIRG/DIN06/    7/   11
.E VAKF1 20180722 Z DH1624/TWIRG/DIN06/   89/   89
.A VCAF1 20180722 Z DH1630/TAIRG    87/UGIRG    15/PLIRG 29.98/UDIRG   305/USIRG    11/TWIRG    91/WCIRG -9999
.E KYWF1 20180722 Z DH1630/USIRG/DIN06/   11/    9
.E KYWF1 20180722 Z DH1630/UDIRG/DIN06/  283/  278
.E KYWF1 20180722 Z DH1630/UGIRG/DIN06/   14/   15
.E BARA9 20180722 Z DH1624/TAIRG/DIN06/   82/   83
.E BARA9 20180722 Z DH1624/PLIRG/DIN06/29.97/29.97
.E BARA9 20180722 Z DH1624/TWIRG/DIN06/   83/   83



USA.gov is the U.S. government's official web portal to all federal, state and local government web resources and services.